createdAt,value
2022-09-21T00:01:22.760Z,13.80
2022-09-21T00:03:57.338Z,13.70
2022-09-21T00:06:25.738Z,13.60
2022-09-21T00:08:53.354Z,13.70
2022-09-21T00:11:31.909Z,13.60
2022-09-21T00:14:04.461Z,13.60
2022-09-21T00:16:32.376Z,13.50
2022-09-21T00:19:00.149Z,13.50
2022-09-21T00:21:28.361Z,13.40
2022-09-21T00:23:55.609Z,13.30
2022-09-21T00:26:24.980Z,13.40
2022-09-21T00:28:57.542Z,13.40
2022-09-21T00:31:25.210Z,13.40
2022-09-21T00:33:52.918Z,13.50
2022-09-21T00:36:23.329Z,13.40
2022-09-21T00:38:53.867Z,13.30
2022-09-21T00:44:25.248Z,13.30
2022-09-21T00:46:55.835Z,13.20
2022-09-21T00:49:24.915Z,13.20
2022-09-21T00:51:53.510Z,13.10
2022-09-21T00:54:27.414Z,13.10
2022-09-21T00:56:56.200Z,13.10
2022-09-21T00:59:28.042Z,13.00
2022-09-21T01:01:58.634Z,13.00
2022-09-21T01:04:28.386Z,13.00
2022-09-21T01:06:57.155Z,12.90
2022-09-21T01:09:24.873Z,12.90
2022-09-21T01:12:10.403Z,12.70
2022-09-21T01:14:50.451Z,12.70
2022-09-21T01:17:46.436Z,12.60
2022-09-21T01:20:44.164Z,12.60
2022-09-21T01:23:43.426Z,12.60
2022-09-21T01:26:48.022Z,12.60
2022-09-21T01:29:27.005Z,12.50
2022-09-21T01:32:11.093Z,12.50
2022-09-21T01:37:30.401Z,12.50
2022-09-21T01:42:30.456Z,12.40
2022-09-21T01:45:01.850Z,12.40
2022-09-21T01:47:31.580Z,12.40
2022-09-21T01:50:02.572Z,12.30
2022-09-21T01:52:43.469Z,12.40
2022-09-21T01:55:17.245Z,12.30
2022-09-21T01:58:07.845Z,12.10
2022-09-21T02:06:08.067Z,12.00
2022-09-21T02:08:36.347Z,12.10
2022-09-21T02:11:06.135Z,12.10
2022-09-21T02:13:37.238Z,12.10
2022-09-21T02:16:21.331Z,12.10
2022-09-21T02:19:11.391Z,12.10
2022-09-21T02:24:27.582Z,12.20
2022-09-21T02:27:01.364Z,12.20
2022-09-21T02:29:54.884Z,12.20
2022-09-21T02:32:41.902Z,12.20
2022-09-21T02:35:21.335Z,12.20
2022-09-21T02:38:04.461Z,12.20
2022-09-21T02:40:36.890Z,12.20
2022-09-21T02:43:21.688Z,12.20
2022-09-21T02:46:06.311Z,12.30
2022-09-21T02:48:42.179Z,12.20
2022-09-21T02:53:46.684Z,12.20
2022-09-21T02:56:15.155Z,12.10
2022-09-21T02:58:48.783Z,12.10
2022-09-21T03:01:17.384Z,12.00
2022-09-21T03:06:41.668Z,12.00
2022-09-21T03:09:10.154Z,11.80
2022-09-21T03:11:37.167Z,11.80
2022-09-21T03:14:08.787Z,11.90
2022-09-21T03:16:36.645Z,11.90
2022-09-21T03:19:04.127Z,12.00
2022-09-21T03:21:31.275Z,11.90
2022-09-21T03:23:58.179Z,12.00
2022-09-21T03:26:25.369Z,12.00
2022-09-21T03:28:54.828Z,12.00
2022-09-21T03:31:22.593Z,12.00
2022-09-21T03:33:49.789Z,12.00
2022-09-21T03:36:16.996Z,12.00
2022-09-21T03:38:44.389Z,11.90
2022-09-21T03:41:11.318Z,11.90
2022-09-21T03:43:38.247Z,11.90
2022-09-21T03:46:05.380Z,11.90
2022-09-21T03:48:32.786Z,11.90
2022-09-21T03:50:59.877Z,11.90
2022-09-21T03:53:26.812Z,11.90
2022-09-21T03:55:53.787Z,11.80
2022-09-21T03:58:22.224Z,11.80
2022-09-21T04:00:49.132Z,11.80
2022-09-21T04:03:16.014Z,11.80
2022-09-21T04:05:42.956Z,11.90
2022-09-21T04:08:10.137Z,11.90
2022-09-21T04:10:37.107Z,11.80
2022-09-21T04:13:04.467Z,11.70
2022-09-21T04:15:31.790Z,11.60
2022-09-21T04:17:59.416Z,11.70
2022-09-21T04:20:27.242Z,11.70
2022-09-21T04:22:54.245Z,11.80
2022-09-21T04:25:21.386Z,11.80
2022-09-21T04:27:48.475Z,11.80
2022-09-21T04:30:16.808Z,11.70
2022-09-21T04:32:44.291Z,11.70
2022-09-21T04:35:11.253Z,11.70
2022-09-21T04:37:38.835Z,11.80
2022-09-21T04:40:06.887Z,11.80
2022-09-21T04:42:33.910Z,11.80
2022-09-21T04:45:01.171Z,11.80
2022-09-21T04:47:32.661Z,11.70
2022-09-21T04:49:59.550Z,11.70
2022-09-21T04:52:26.470Z,11.70
2022-09-21T04:54:53.390Z,11.70
2022-09-21T04:57:20.362Z,11.70
2022-09-21T04:59:47.311Z,11.70
2022-09-21T05:02:14.248Z,11.70
2022-09-21T05:04:41.162Z,11.60
2022-09-21T05:07:08.061Z,11.50
2022-09-21T05:09:53.386Z,11.50
2022-09-21T05:12:20.786Z,11.50
2022-09-21T05:14:47.814Z,11.40
2022-09-21T05:17:14.803Z,11.30
2022-09-21T05:19:41.712Z,11.40
2022-09-21T05:22:08.808Z,11.30
2022-09-21T05:24:35.713Z,11.40
2022-09-21T05:27:02.578Z,11.30
2022-09-21T05:29:29.971Z,11.20
2022-09-21T05:32:44.131Z,11.30
2022-09-21T05:35:38.272Z,11.20
2022-09-21T05:38:20.759Z,11.20
2022-09-21T05:40:48.348Z,11.20
2022-09-21T05:43:15.472Z,11.20
2022-09-21T05:45:47.805Z,11.20
2022-09-21T05:48:21.548Z,11.30
2022-09-21T05:50:57.408Z,11.20
2022-09-21T05:53:55.568Z,11.30
2022-09-21T05:56:47.896Z,11.30
2022-09-21T05:59:46.400Z,11.40
2022-09-21T06:02:32.173Z,11.30
2022-09-21T06:05:01.624Z,11.20
2022-09-21T06:07:28.598Z,11.20
2022-09-21T06:09:55.546Z,11.10
2022-09-21T06:12:22.570Z,11.10
2022-09-21T06:14:49.483Z,11.20
2022-09-21T06:17:16.397Z,11.30
2022-09-21T06:19:43.332Z,11.30
2022-09-21T06:22:10.220Z,11.50
2022-09-21T06:24:37.099Z,11.50
2022-09-21T06:27:04.043Z,11.60
2022-09-21T06:29:30.989Z,11.60
2022-09-21T06:31:57.950Z,11.60
2022-09-21T06:34:24.855Z,11.70
2022-09-21T06:36:51.790Z,11.80
2022-09-21T06:39:18.737Z,11.90
2022-09-21T06:41:45.670Z,12.00
2022-09-21T06:44:12.534Z,12.20
2022-09-21T06:46:39.447Z,12.30
2022-09-21T06:49:06.393Z,12.60
2022-09-21T06:51:33.295Z,12.90
2022-09-21T06:54:01.364Z,13.20
2022-09-21T06:56:28.424Z,13.60
2022-09-21T06:58:55.896Z,13.90
2022-09-21T07:01:23.481Z,14.00
2022-09-21T07:03:51.929Z,14.00
2022-09-21T07:06:20.447Z,14.20
2022-09-21T07:11:35.084Z,14.10
2022-09-21T07:14:02.010Z,14.40
2022-09-21T07:16:29.011Z,14.60
2022-09-21T07:18:56.899Z,14.80
2022-09-21T07:21:23.928Z,14.90
2022-09-21T07:23:50.928Z,15.00
2022-09-21T07:26:17.959Z,14.90
2022-09-21T07:28:45.108Z,14.80
2022-09-21T07:31:17.033Z,14.80
2022-09-21T07:33:47.177Z,14.70
2022-09-21T07:36:14.221Z,14.80
2022-09-21T07:38:43.250Z,14.80
2022-09-21T07:41:12.978Z,14.70
2022-09-21T07:43:40.497Z,14.70
2022-09-21T07:46:13.412Z,14.70
2022-09-21T07:48:41.083Z,14.80
2022-09-21T07:51:11.245Z,14.90
2022-09-21T07:53:39.924Z,15.10
2022-09-21T07:56:15.843Z,15.10
2022-09-21T07:59:02.261Z,15.40
2022-09-21T08:01:30.163Z,15.80
2022-09-21T08:03:58.449Z,16.30
2022-09-21T08:06:28.317Z,16.70
2022-09-21T08:08:57.753Z,17.00
2022-09-21T08:11:27.522Z,17.30
2022-09-21T08:13:57.540Z,17.70
2022-09-21T08:16:25.595Z,18.00
2022-09-21T08:18:52.999Z,18.20
2022-09-21T08:21:20.642Z,18.50
2022-09-21T08:23:49.343Z,18.70
2022-09-21T08:26:21.452Z,18.90
2022-09-21T08:28:53.522Z,18.90
2022-09-21T08:31:22.156Z,18.80
2022-09-21T08:33:52.626Z,18.50
2022-09-21T08:36:19.925Z,18.40
2022-09-21T08:38:48.187Z,18.30
2022-09-21T08:41:15.272Z,18.20
2022-09-21T08:43:52.395Z,18.10
2022-09-21T08:46:27.217Z,18.20
2022-09-21T08:49:04.194Z,18.40
2022-09-21T08:51:47.877Z,18.70
2022-09-21T08:54:21.107Z,19.00
2022-09-21T08:57:04.389Z,19.20
2022-09-21T08:59:32.149Z,19.30
2022-09-21T09:02:27.263Z,19.50
2022-09-21T09:05:14.496Z,19.50
2022-09-21T09:08:04.484Z,19.60
2022-09-21T09:10:45.793Z,19.70
2022-09-21T09:13:21.555Z,19.80
2022-09-21T09:16:00.771Z,20.00
2022-09-21T09:18:44.320Z,20.10
2022-09-21T09:21:31.411Z,20.20
2022-09-21T09:24:57.607Z,20.50
2022-09-21T09:27:41.451Z,20.60
2022-09-21T09:30:20.200Z,20.90
2022-09-21T09:33:22.648Z,21.10
2022-09-21T09:35:55.390Z,21.20
2022-09-21T09:38:47.823Z,21.50
2022-09-21T09:41:27.026Z,21.60
2022-09-21T09:44:06.271Z,22.00
2022-09-21T09:46:51.272Z,22.10
2022-09-21T09:49:30.521Z,22.20
2022-09-21T09:51:57.791Z,22.30
2022-09-21T09:54:29.542Z,22.30
2022-09-21T09:56:56.442Z,22.30
2022-09-21T09:59:44.822Z,22.40
2022-09-21T10:02:25.187Z,22.50
2022-09-21T10:05:03.872Z,22.60
2022-09-21T10:07:42.819Z,22.60
2022-09-21T10:10:32.464Z,22.70
2022-09-21T10:13:25.131Z,22.90
2022-09-21T10:15:56.387Z,23.10
2022-09-21T10:18:25.857Z,23.20
2022-09-21T10:21:02.732Z,23.50
2022-09-21T10:23:31.192Z,23.80
2022-09-21T10:26:11.031Z,23.70
2022-09-21T10:28:43.579Z,23.80
2022-09-21T10:31:23.804Z,23.80
2022-09-21T10:33:55.280Z,24.00
2022-09-21T10:36:36.791Z,24.00
2022-09-21T10:39:23.206Z,24.00
2022-09-21T10:42:11.912Z,23.90
2022-09-21T10:44:44.547Z,24.00
2022-09-21T10:47:17.691Z,24.00
2022-09-21T10:49:57.468Z,24.10
2022-09-21T10:52:31.597Z,24.30
2022-09-21T10:54:58.892Z,24.50
2022-09-21T10:57:30.258Z,24.70
2022-09-21T10:59:57.491Z,24.80
2022-09-21T11:02:36.710Z,24.60
2022-09-21T11:05:17.364Z,24.60
2022-09-21T11:08:17.521Z,24.70
2022-09-21T11:11:07.750Z,24.90
2022-09-21T11:13:47.873Z,25.20
2022-09-21T11:16:22.137Z,25.30
2022-09-21T11:19:23.539Z,25.50
2022-09-21T11:22:02.343Z,25.80
2022-09-21T11:24:43.575Z,25.70
2022-09-21T11:27:19.190Z,25.80
2022-09-21T11:30:06.035Z,26.00
2022-09-21T11:32:35.027Z,26.40
2022-09-21T11:35:24.354Z,26.60
2022-09-21T11:38:22.541Z,26.60
2022-09-21T11:41:14.441Z,26.30
2022-09-21T11:44:07.533Z,26.30
2022-09-21T11:46:47.877Z,26.00
2022-09-21T11:49:33.648Z,25.50
2022-09-21T11:52:33.317Z,25.50
2022-09-21T11:55:15.670Z,25.80
2022-09-21T11:58:03.041Z,26.00
2022-09-21T12:00:44.313Z,26.10
2022-09-21T12:03:11.225Z,26.10
2022-09-21T12:05:50.258Z,26.30
2022-09-21T12:08:28.956Z,26.30
2022-09-21T12:11:16.265Z,26.30
2022-09-21T12:14:22.400Z,26.40
2022-09-21T12:17:03.369Z,26.40
2022-09-21T12:19:47.411Z,26.40
2022-09-21T12:22:26.473Z,26.50
2022-09-21T12:25:02.766Z,26.50
2022-09-21T12:27:40.585Z,26.40
2022-09-21T12:30:17.241Z,26.00
2022-09-21T12:33:05.829Z,25.90
2022-09-21T12:35:46.852Z,25.90
2022-09-21T12:38:36.461Z,26.10
2022-09-21T12:41:28.849Z,26.20
2022-09-21T12:44:07.575Z,26.30
2022-09-21T12:46:44.041Z,26.40
2022-09-21T12:49:18.938Z,26.50
2022-09-21T12:51:54.639Z,26.60
2022-09-21T12:54:50.467Z,26.60
2022-09-21T12:57:49.566Z,26.50
2022-09-21T13:00:24.456Z,26.70
2022-09-21T13:03:20.546Z,27.10
2022-09-21T13:06:09.306Z,27.30
2022-09-21T13:08:41.108Z,27.40
2022-09-21T13:11:08.832Z,27.50
2022-09-21T13:13:56.681Z,27.70
2022-09-21T13:16:30.359Z,27.80
2022-09-21T13:19:25.546Z,28.00
2022-09-21T13:22:14.508Z,27.90
2022-09-21T13:24:42.968Z,27.70
2022-09-21T13:27:10.128Z,27.80
2022-09-21T13:29:40.109Z,27.50
2022-09-21T13:32:13.990Z,27.40
2022-09-21T13:34:42.775Z,27.20
2022-09-21T13:37:15.676Z,26.90
2022-09-21T13:39:55.772Z,26.90
2022-09-21T13:42:34.891Z,26.80
2022-09-21T13:45:13.947Z,26.80
2022-09-21T13:47:47.299Z,26.70
2022-09-21T13:50:27.756Z,26.70
2022-09-21T13:53:00.707Z,26.70
2022-09-21T13:55:34.162Z,26.80
2022-09-21T13:58:04.928Z,26.80
2022-09-21T14:00:42.022Z,26.70
2022-09-21T14:03:38.418Z,26.60
2022-09-21T14:06:19.178Z,26.50
2022-09-21T14:08:59.542Z,26.30
2022-09-21T14:11:39.163Z,26.00
2022-09-21T14:14:14.828Z,26.20
2022-09-21T14:16:47.698Z,26.00
2022-09-21T14:19:17.824Z,25.70
2022-09-21T14:22:03.763Z,25.50
2022-09-21T14:24:42.850Z,25.30
2022-09-21T14:27:45.912Z,25.10
2022-09-21T14:30:31.034Z,25.00
2022-09-21T14:33:01.026Z,25.00
2022-09-21T14:35:48.903Z,24.80
2022-09-21T14:38:29.167Z,24.40
2022-09-21T14:41:07.454Z,23.90
2022-09-21T14:43:37.062Z,23.40
2022-09-21T14:46:36.156Z,23.00
2022-09-21T14:49:33.078Z,22.70
2022-09-21T14:52:29.757Z,22.40
2022-09-21T14:55:55.512Z,22.20
2022-09-21T14:58:48.835Z,22.00
2022-09-21T15:01:36.643Z,21.80
2022-09-21T15:04:22.794Z,21.60
2022-09-21T15:07:31.908Z,21.50
2022-09-21T15:10:36.637Z,21.40
2022-09-21T15:13:38.694Z,21.40
2022-09-21T15:16:38.117Z,21.50
2022-09-21T15:19:26.298Z,21.70
2022-09-21T15:21:56.014Z,21.70
2022-09-21T15:24:32.769Z,21.70
2022-09-21T15:27:19.175Z,21.70
2022-09-21T15:29:55.654Z,21.50
2022-09-21T15:32:40.516Z,21.40
2022-09-21T15:35:18.530Z,21.20
2022-09-21T15:37:46.412Z,21.10
2022-09-21T15:40:18.304Z,21.00
2022-09-21T15:43:11.839Z,21.00
2022-09-21T15:46:01.195Z,20.80
2022-09-21T15:48:38.393Z,20.80
2022-09-21T15:51:10.379Z,20.70
2022-09-21T15:53:48.552Z,20.60
2022-09-21T15:56:23.448Z,20.50
2022-09-21T15:58:50.918Z,20.40
2022-09-21T16:01:23.765Z,20.30
2022-09-21T16:04:05.187Z,20.20
2022-09-21T16:06:45.548Z,20.20
2022-09-21T16:09:25.373Z,20.10
2022-09-21T16:11:55.976Z,20.00
2022-09-21T16:14:42.263Z,19.90
2022-09-21T16:17:12.455Z,19.80
2022-09-21T16:19:51.154Z,19.60
2022-09-21T16:22:21.990Z,19.50
2022-09-21T16:24:52.560Z,19.50
2022-09-21T16:27:22.248Z,19.40
2022-09-21T16:29:50.645Z,19.40
2022-09-21T16:32:30.060Z,19.30
2022-09-21T16:35:31.645Z,19.20
2022-09-21T16:37:59.159Z,19.10
2022-09-21T16:40:27.587Z,19.10
2022-09-21T16:42:58.995Z,19.00
2022-09-21T16:45:31.408Z,19.00
2022-09-21T16:47:59.540Z,19.00
2022-09-21T16:50:26.654Z,19.00
2022-09-21T16:52:54.901Z,18.90
2022-09-21T16:55:25.572Z,18.80
2022-09-21T16:57:55.313Z,18.80
2022-09-21T17:00:22.651Z,18.70
2022-09-21T17:02:50.081Z,18.70
2022-09-21T17:05:20.660Z,18.60
2022-09-21T17:08:00.329Z,18.60
2022-09-21T17:10:31.953Z,18.60
2022-09-21T17:12:59.294Z,18.60
2022-09-21T17:15:29.163Z,18.50
2022-09-21T17:17:58.249Z,18.40
2022-09-21T17:20:45.430Z,18.40
2022-09-21T17:23:12.675Z,18.30
2022-09-21T17:25:39.605Z,18.30
2022-09-21T17:28:26.024Z,18.20
2022-09-21T17:30:56.114Z,18.20
2022-09-21T17:33:24.025Z,18.20
2022-09-21T17:35:51.078Z,18.10
2022-09-21T17:38:18.290Z,18.00
2022-09-21T17:40:46.679Z,17.90
2022-09-21T17:43:50.241Z,17.80
2022-09-21T17:46:28.770Z,17.70
2022-09-21T17:48:56.084Z,17.70
2022-09-21T17:51:41.994Z,17.60
2022-09-21T17:54:09.206Z,17.50
2022-09-21T17:56:40.744Z,17.40
2022-09-21T17:59:29.643Z,17.50
2022-09-21T18:01:59.827Z,17.40
2022-09-21T18:04:35.054Z,17.30
2022-09-21T18:07:03.313Z,17.20
2022-09-21T18:09:30.607Z,17.10
2022-09-21T18:12:28.403Z,17.10
2022-09-21T18:15:23.045Z,17.00
2022-09-21T18:18:19.705Z,17.00
2022-09-21T18:21:09.045Z,16.90
2022-09-21T18:23:41.766Z,16.90
2022-09-21T18:26:17.127Z,16.90
2022-09-21T18:28:45.911Z,16.90
2022-09-21T18:31:45.381Z,16.90
2022-09-21T18:34:34.851Z,16.80
2022-09-21T18:37:15.621Z,16.80
2022-09-21T18:39:45.279Z,16.80
2022-09-21T18:42:40.463Z,16.70
2022-09-21T18:45:20.344Z,16.70
2022-09-21T18:48:22.691Z,16.70
2022-09-21T18:51:10.974Z,16.70
2022-09-21T18:53:38.633Z,16.80
2022-09-21T18:56:06.432Z,16.80
2022-09-21T18:58:33.740Z,16.80
2022-09-21T19:01:00.989Z,16.80
2022-09-21T19:03:28.340Z,16.70
2022-09-21T19:06:32.700Z,16.60
2022-09-21T19:09:31.170Z,16.60
2022-09-21T19:12:16.947Z,16.60
2022-09-21T19:15:27.537Z,16.60
2022-09-21T19:18:16.047Z,16.60
2022-09-21T19:20:46.803Z,16.50
2022-09-21T19:23:20.398Z,16.50
2022-09-21T19:26:02.084Z,16.50
2022-09-21T19:28:57.655Z,16.50
2022-09-21T19:31:24.820Z,16.30
2022-09-21T19:33:52.021Z,16.20
2022-09-21T19:36:20.615Z,16.10
2022-09-21T19:38:48.153Z,16.10
2022-09-21T19:41:23.955Z,16.10
2022-09-21T19:44:05.590Z,16.00
2022-09-21T19:46:46.423Z,16.00
2022-09-21T19:49:19.809Z,16.00
2022-09-21T19:51:56.027Z,16.00
2022-09-21T19:54:44.213Z,15.90
2022-09-21T19:57:38.299Z,16.00
2022-09-21T20:00:08.459Z,15.90
2022-09-21T20:02:58.881Z,15.80
2022-09-21T20:05:49.662Z,15.70
2022-09-21T20:08:49.083Z,15.70
2022-09-21T20:11:35.917Z,15.60
2022-09-21T20:14:36.950Z,15.60
2022-09-21T20:17:10.101Z,15.60
2022-09-21T20:20:05.512Z,15.50
2022-09-21T20:22:38.354Z,15.50
2022-09-21T20:25:27.786Z,15.50
2022-09-21T20:27:56.743Z,15.50
2022-09-21T20:30:31.768Z,15.60
2022-09-21T20:33:06.825Z,15.50
2022-09-21T20:35:34.592Z,15.50
2022-09-21T20:38:02.957Z,15.50
2022-09-21T20:40:32.772Z,15.40
2022-09-21T20:43:01.451Z,15.40
2022-09-21T20:45:29.443Z,15.40
2022-09-21T20:47:57.444Z,15.50
2022-09-21T20:50:30.437Z,15.50
2022-09-21T20:52:57.594Z,15.40
2022-09-21T20:55:25.558Z,15.40
2022-09-21T20:57:52.634Z,15.30
2022-09-21T21:00:19.621Z,15.30
2022-09-21T21:02:46.499Z,15.20
2022-09-21T21:05:13.369Z,15.20
2022-09-21T21:07:43.499Z,15.20
2022-09-21T21:10:15.676Z,15.30
2022-09-21T21:12:43.125Z,15.40
2022-09-21T21:15:11.747Z,15.50
2022-09-21T21:17:39.998Z,15.40
2022-09-21T21:20:08.874Z,15.30
2022-09-21T21:22:36.297Z,15.30
2022-09-21T21:25:03.458Z,15.30
2022-09-21T21:27:31.589Z,15.40
2022-09-21T21:29:58.628Z,15.30
2022-09-21T21:32:26.942Z,15.40
2022-09-21T21:34:55.101Z,15.40
2022-09-21T21:37:25.095Z,15.50
2022-09-21T21:39:53.856Z,15.50
2022-09-21T21:42:21.566Z,15.50
2022-09-21T21:44:50.544Z,15.60
2022-09-21T21:47:38.845Z,15.60
2022-09-21T21:50:05.922Z,15.60
2022-09-21T21:52:32.858Z,15.60
2022-09-21T21:54:59.782Z,15.50
2022-09-21T21:57:26.712Z,15.40
2022-09-21T21:59:53.649Z,15.50
2022-09-21T22:02:20.883Z,15.50
2022-09-21T22:04:47.793Z,15.40
2022-09-21T22:07:14.732Z,15.40
2022-09-21T22:09:41.615Z,15.40
2022-09-21T22:12:09.181Z,15.40
2022-09-21T22:14:36.091Z,15.40
2022-09-21T22:17:03.419Z,15.40
2022-09-21T22:19:30.308Z,15.40
2022-09-21T22:21:57.814Z,15.40
2022-09-21T22:24:24.950Z,15.40
2022-09-21T22:26:51.936Z,15.30
2022-09-21T22:29:18.908Z,15.30
2022-09-21T22:31:48.415Z,15.30
2022-09-21T22:34:16.620Z,15.30
2022-09-21T22:36:44.081Z,15.30
2022-09-21T22:39:12.284Z,15.30
2022-09-21T22:41:41.469Z,15.30
2022-09-21T22:44:10.212Z,15.30
2022-09-21T22:46:37.982Z,15.30
2022-09-21T22:49:05.758Z,15.20
2022-09-21T22:51:33.133Z,15.20
2022-09-21T22:54:01.602Z,15.20
2022-09-21T22:56:31.532Z,15.20
2022-09-21T22:59:00.509Z,15.30
2022-09-21T23:01:35.813Z,15.20
2022-09-21T23:04:13.627Z,15.20
2022-09-21T23:06:43.371Z,15.20
2022-09-21T23:09:15.996Z,15.20
2022-09-21T23:11:47.264Z,15.10
2022-09-21T23:14:16.493Z,15.10
2022-09-21T23:16:44.061Z,15.10
2022-09-21T23:19:15.775Z,15.10
2022-09-21T23:21:45.144Z,15.10
2022-09-21T23:24:13.011Z,15.00
2022-09-21T23:26:40.064Z,15.00
2022-09-21T23:29:12.587Z,15.00
2022-09-21T23:31:44.493Z,15.00
2022-09-21T23:34:14.976Z,15.00
2022-09-21T23:36:42.651Z,15.00
2022-09-21T23:39:14.603Z,15.00
2022-09-21T23:41:41.701Z,15.00
2022-09-21T23:44:09.370Z,14.90
2022-09-21T23:46:40.284Z,14.90
2022-09-21T23:49:07.517Z,14.90
2022-09-21T23:51:35.008Z,14.80
2022-09-21T23:54:02.449Z,14.80
2022-09-21T23:56:30.362Z,14.80
2022-09-21T23:58:57.777Z,14.80
